»·PEaware :: FFT250 KDEN-KLAX

FFT250 :: KDEN-KLAX

FLIGHT INFORMATION

Flight Status: Arrived
Operator:
Frontier Airlines
More flights by this operator :: More flights under this callsign
Pilot: Andrew J. (13363)
Aircraft: AIRBUS A321
(A321)
More flights by this aircraft type
Origin: KDEN Denver Intl
United States
Destination: KLAX Los Angeles Intl
United States
More flights between these airports :: More routes between these airports
Route: +BAYLR6 TEHRU JASSE Q90 DNERO ANJLL4
File this flight plan on PilotEdge
Remarks:
Altitude:
(Current/Filed)
36,000ft
Speed:
(Current/Filed)
455kts
Departed: 26-Aug-20 10:27 AM
Arrived: 26-Aug-20 12:31 PM
Distance/Time
Traveled:
747nm/2:03
Distance/Time
To Go:
Arrived

Flight Plot

Page will automatically refresh every two minutes.

Flight plan parsing failed; only flown route is shown


Map Options




Map Legend


Flown Route
Filed Route
Departure Airport
Arrival Airport
Navaid (VOR, NDB)
Fix

Horizontal Profiles

Position Reports

Time Latitude Longitude Heading Altitude Ground
Speed
26-Aug-20 09:54 39.853269 -104.675103 360 5380ft 0kts
26-Aug-20 09:55 39.853269 -104.675103 0 5380ft 0kts
26-Aug-20 09:56 39.853269 -104.675103 0 5380ft 0kts
26-Aug-20 09:57 39.853269 -104.675103 0 5380ft 0kts
26-Aug-20 09:58 39.853269 -104.675103 360 5380ft 0kts
26-Aug-20 09:59 39.853269 -104.675103 360 5380ft 0kts
26-Aug-20 10:00 39.853269 -104.675103 360 5380ft 0kts
26-Aug-20 10:01 39.853269 -104.675103 360 5380ft 0kts
26-Aug-20 10:02 39.853269 -104.675103 0 5380ft 0kts
26-Aug-20 10:03 39.853269 -104.675103 0 5380ft 0kts
26-Aug-20 10:04 39.853269 -104.675103 0 5380ft 0kts
26-Aug-20 10:05 39.853269 -104.675103 360 5380ft 0kts
26-Aug-20 10:06 39.853269 -104.675103 0 5380ft 0kts
26-Aug-20 10:07 39.853269 -104.675103 360 5380ft 0kts
26-Aug-20 10:08 39.853269 -104.675103 360 5380ft 0kts
26-Aug-20 10:09 39.853269 -104.675103 360 5380ft 0kts
26-Aug-20 10:10 39.853269 -104.675103 360 5380ft 0kts
26-Aug-20 10:11 39.853269 -104.675103 0 5380ft 0kts
26-Aug-20 10:12 39.853269 -104.675103 0 5380ft 0kts
26-Aug-20 10:13 39.852611 -104.675103 0 5380ft 5kts
26-Aug-20 10:14 39.851846 -104.675099 1 5387ft 0kts
26-Aug-20 10:15 39.852302 -104.675140 345 5380ft 0kts
26-Aug-20 10:16 39.852302 -104.675140 345 5380ft 0kts
26-Aug-20 10:17 39.852658 -104.675382 308 5380ft 3kts
26-Aug-20 10:18 39.852794 -104.677457 270 5380ft 7kts
26-Aug-20 10:19 39.852837 -104.681007 272 5380ft 11kts
26-Aug-20 10:20 39.852052 -104.685345 269 5373ft 13kts
26-Aug-20 10:21 39.851967 -104.691943 270 5343ft 16kts
26-Aug-20 10:22 39.852016 -104.694927 271 5337ft 0kts
26-Aug-20 10:23 39.852016 -104.694927 271 5337ft 0kts
26-Aug-20 10:24 39.852020 -104.695177 270 5337ft 2kts
26-Aug-20 10:25 39.852306 -104.696584 3 5337ft 8kts
26-Aug-20 10:26 39.879588 -104.696285 1 5357ft 164kts
26-Aug-20 10:27 39.917398 -104.712513 269 6632ft 166kts
26-Aug-20 10:28 39.886534 -104.760130 224 7511ft 190kts
26-Aug-20 10:29 39.844887 -104.813665 225 8443ft 232kts
26-Aug-20 10:30 39.794220 -104.879591 225 9460ft 286kts
26-Aug-20 10:32 39.758740 -104.978720 255 10923ft 330kts
26-Aug-20 10:33 39.724847 -105.099499 247 11991ft 386kts
26-Aug-20 10:34 39.679962 -105.235936 247 13564ft 421kts
26-Aug-20 10:35 39.634146 -105.374945 248 16180ft 423kts
26-Aug-20 10:36 39.587389 -105.516459 248 18264ft 433kts
26-Aug-20 10:37 39.541174 -105.662446 251 20221ft 442kts
26-Aug-20 10:38 39.499390 -105.813825 251 22105ft 451kts
26-Aug-20 10:39 39.456397 -105.968127 251 23876ft 459kts
26-Aug-20 10:40 39.412404 -106.124875 251 25436ft 467kts
26-Aug-20 10:41 39.367594 -106.283767 251 26927ft 472kts
26-Aug-20 10:42 39.324120 -106.436867 251 29474ft 448kts
26-Aug-20 10:43 39.281126 -106.587284 251 30974ft 443kts
26-Aug-20 10:44 39.231581 -106.731384 241 32338ft 439kts
26-Aug-20 10:45 39.162309 -106.860762 234 33588ft 435kts
26-Aug-20 10:46 39.090733 -106.984277 234 34894ft 425kts
26-Aug-20 10:47 39.020655 -107.104818 234 35935ft 419kts
26-Aug-20 10:48 38.950479 -107.225117 234 36308ft 425kts
26-Aug-20 10:48 38.890803 -107.326995 233 36323ft 430kts
26-Aug-20 10:50 38.804172 -107.473496 233 36272ft 449kts
26-Aug-20 10:50 38.741192 -107.580091 233 36216ft 451kts
26-Aug-20 10:52 38.652960 -107.729311 233 36191ft 451kts
26-Aug-20 10:52 38.589806 -107.835719 233 36187ft 451kts
26-Aug-20 10:53 38.513862 -107.962989 233 36188ft 451kts
26-Aug-20 10:54 38.437689 -108.090100 233 36186ft 451kts
26-Aug-20 10:55 38.361611 -108.216557 233 36186ft 451kts
26-Aug-20 10:56 38.285182 -108.343119 233 36200ft 451kts
26-Aug-20 10:57 38.208392 -108.469767 233 36303ft 451kts
26-Aug-20 10:58 38.131791 -108.595625 233 36352ft 450kts
26-Aug-20 10:59 38.054697 -108.722062 232 36260ft 450kts
26-Aug-20 11:00 37.977529 -108.848126 232 36197ft 451kts
26-Aug-20 11:01 37.899771 -108.974447 232 36208ft 451kts
26-Aug-20 11:02 37.822737 -109.098308 232 36222ft 444kts
26-Aug-20 11:03 37.746670 -109.220748 232 36223ft 438kts
26-Aug-20 11:04 37.671397 -109.341576 232 36223ft 438kts
26-Aug-20 11:05 37.596066 -109.462098 232 36213ft 437kts
26-Aug-20 11:06 37.520662 -109.582299 232 36207ft 437kts
26-Aug-20 11:07 37.444852 -109.702912 232 36207ft 437kts
26-Aug-20 11:08 37.369056 -109.823180 231 36207ft 438kts
26-Aug-20 11:09 37.292793 -109.943479 231 36207ft 437kts
26-Aug-20 11:10 37.216440 -110.063444 231 36207ft 437kts
26-Aug-20 11:11 37.140066 -110.182997 231 36207ft 437kts
26-Aug-20 11:12 37.063259 -110.302795 231 36197ft 443kts
26-Aug-20 11:13 36.984935 -110.424555 231 36137ft 452kts
26-Aug-20 11:14 36.904908 -110.548472 231 36062ft 456kts
26-Aug-20 11:15 36.825619 -110.670133 231 36045ft 457kts
26-Aug-20 11:16 36.745137 -110.794108 231 36042ft 457kts
26-Aug-20 11:17 36.664591 -110.917511 231 36043ft 456kts
26-Aug-20 11:18 36.584689 -111.039436 231 36043ft 447kts
26-Aug-20 11:19 36.506531 -111.158305 231 36042ft 440kts
26-Aug-20 11:20 36.428369 -111.276714 230 36042ft 440kts
26-Aug-20 11:21 36.350323 -111.394547 231 36042ft 440kts
26-Aug-20 11:22 36.272380 -111.511825 231 36047ft 441kts
26-Aug-20 11:23 36.194226 -111.629005 231 36110ft 441kts
26-Aug-20 11:24 36.116431 -111.746505 232 36200ft 440kts
26-Aug-20 11:25 36.052545 -111.875859 244 36227ft 440kts
26-Aug-20 11:26 36.006012 -112.016767 247 36233ft 440kts
26-Aug-20 11:27 35.960790 -112.157679 247 36233ft 440kts
26-Aug-20 11:28 35.915512 -112.298045 247 36233ft 440kts
26-Aug-20 11:29 35.869582 -112.438710 247 36233ft 440kts
26-Aug-20 11:30 35.823778 -112.578737 247 36233ft 440kts
26-Aug-20 11:31 35.778570 -112.717122 247 36233ft 434kts
26-Aug-20 11:32 35.733239 -112.855342 247 36233ft 434kts
26-Aug-20 11:33 35.688469 -112.991031 246 36236ft 425kts
26-Aug-20 11:34 35.643947 -113.125232 246 36221ft 423kts
26-Aug-20 11:35 35.599215 -113.259438 246 36108ft 424kts
26-Aug-20 11:36 35.554384 -113.393251 246 36004ft 424kts
26-Aug-20 11:37 35.509269 -113.527379 246 35980ft 425kts
26-Aug-20 11:38 35.463883 -113.661738 245 35978ft 425kts
26-Aug-20 11:39 35.418530 -113.795870 245 35977ft 425kts
26-Aug-20 11:40 35.373088 -113.929302 245 35977ft 425kts
26-Aug-20 11:41 35.327402 -114.062784 245 35977ft 425kts
26-Aug-20 11:42 35.281615 -114.195973 245 35977ft 425kts
26-Aug-20 11:43 35.235879 -114.328434 245 35957ft 424kts
26-Aug-20 11:44 35.189632 -114.461795 245 35861ft 425kts
26-Aug-20 11:45 35.143276 -114.594860 245 35775ft 426kts
26-Aug-20 11:46 35.097150 -114.727812 245 35756ft 426kts
26-Aug-20 11:47 35.051752 -114.858114 245 35754ft 414kts
26-Aug-20 11:48 35.001981 -114.982378 240 35753ft 404kts
26-Aug-20 11:49 34.949440 -115.103618 240 35761ft 405kts
26-Aug-20 11:50 34.896491 -115.225229 239 35769ft 407kts
26-Aug-20 11:51 34.842675 -115.347525 239 35771ft 410kts
26-Aug-20 11:52 34.789784 -115.469932 242 35773ft 410kts
26-Aug-20 11:53 34.743036 -115.596604 243 35817ft 411kts
26-Aug-20 11:54 34.696223 -115.723858 243 35894ft 410kts
26-Aug-20 11:55 34.649587 -115.849954 242 35924ft 410kts
26-Aug-20 11:56 34.602900 -115.976226 243 35929ft 410kts
26-Aug-20 11:57 34.556353 -116.102282 243 35929ft 410kts
26-Aug-20 11:58 34.509628 -116.228289 243 35929ft 410kts
26-Aug-20 11:59 34.462815 -116.354047 243 35929ft 410kts
26-Aug-20 12:00 34.415581 -116.479914 241 35925ft 409kts
26-Aug-20 12:01 34.364961 -116.603121 241 35900ft 409kts
26-Aug-20 12:02 34.314579 -116.726513 241 35286ft 404kts
26-Aug-20 12:03 34.263349 -116.853985 241 29245ft 439kts
26-Aug-20 12:04 34.213153 -116.980498 245 25306ft 402kts
26-Aug-20 12:05 34.178664 -117.103362 249 21554ft 372kts
26-Aug-20 12:06 34.147581 -117.217290 249 17891ft 349kts
26-Aug-20 12:07 34.118049 -117.324409 249 14642ft 320kts
26-Aug-20 12:08 34.069874 -117.400793 217 12661ft 279kts
26-Aug-20 12:09 34.025026 -117.466823 263 10723ft 257kts
26-Aug-20 12:10 34.018139 -117.556353 263 10401ft 281kts
26-Aug-20 12:11 34.009864 -117.649865 263 10098ft 280kts
26-Aug-20 12:12 34.001087 -117.743408 262 9981ft 278kts
26-Aug-20 12:13 33.992086 -117.835127 262 8472ft 274kts
26-Aug-20 12:14 33.983284 -117.925541 263 6931ft 269kts
26-Aug-20 12:15 33.974767 -118.014031 264 5657ft 256kts
26-Aug-20 12:16 33.967213 -118.096392 263 4742ft 243kts
26-Aug-20 12:17 33.958826 -118.176733 263 3475ft 239kts
26-Aug-20 12:18 33.950671 -118.254238 263 2222ft 218kts
26-Aug-20 12:19 33.944240 -118.316793 263 1797ft 154kts
26-Aug-20 12:20 33.938621 -118.376717 263 2959ft 203kts
26-Aug-20 12:21 33.925322 -118.445281 220 2998ft 224kts
26-Aug-20 12:22 33.878035 -118.418658 92 3003ft 242kts
26-Aug-20 12:23 33.886934 -118.338067 81 2998ft 243kts
26-Aug-20 12:24 33.896340 -118.260104 81 2996ft 231kts
26-Aug-20 12:25 33.927640 -118.203737 355 3002ft 220kts
26-Aug-20 12:26 33.952494 -118.248439 257 3020ft 185kts
26-Aug-20 12:28 33.945085 -118.307015 263 1723ft 177kts
26-Aug-20 12:29 33.939727 -118.360430 264 457ft 135kts
26-Aug-20 12:30 33.935642 -118.399625 262 121ft 52kts
26-Aug-20 12:31 33.936497 -118.408909 339 133ft 21kts
26-Aug-20 12:32 33.937918 -118.409064 340 133ft 4kts
26-Aug-20 12:33 33.938891 -118.406994 83 132ft 13kts
26-Aug-20 12:34 33.939401 -118.403145 7 127ft 2kts
26-Aug-20 12:35 33.939857 -118.403717 309 127ft 0kts
26-Aug-20 12:36 33.939857 -118.403717 309 127ft 0kts
26-Aug-20 12:37 33.939857 -118.403717 309 127ft 0kts
26-Aug-20 12:38 33.939857 -118.403717 309 127ft 0kts
26-Aug-20 12:39 33.939857 -118.403717 309 127ft 0kts
26-Aug-20 12:40 33.939857 -118.403717 309 127ft 0kts
26-Aug-20 12:41 33.939857 -118.403717 309 127ft 0kts
26-Aug-20 12:42 33.939857 -118.403717 309 127ft 0kts
26-Aug-20 12:43 33.939857 -118.403717 309 127ft 0kts
26-Aug-20 12:44 33.939857 -118.403717 309 127ft 0kts
26-Aug-20 12:44 33.939857 -118.403717 309 127ft 0kts

Navigation Log

Ident Type
Flight plan parsing failed, navigation log unavailable